Time;durP1;ratioP1;P1;durP2;ratioP2;P2;SDS_P1;SDS_P2;PMS_P1;PMS_P2;Temp;Humidity;BMP_temperature;BMP_pressure;BME280_temperature;BME280_humidity;BME280_pressure;Samples;Min_cycle;Max_cycle;Signal;HPM_P1;HPM_P2
2021/12/04 00:00:22;;;;;;;21.60;13.70;;;;;;;-1.95;80.91;99161.77;106018;1319;138354;-65
2021/12/04 00:02:57;;;;;;;24.30;13.50;;;;;;;-1.99;81.06;99156.01;106175;1312;22629;-66
2021/12/04 00:05:25;;;;;;;27.70;15.60;;;;;;;-1.99;81.08;99161.58;106152;1318;22803;-65
2021/12/04 00:07:53;;;;;;;23.50;13.60;;;;;;;-2.01;81.17;99161.93;106056;1316;141994;-65
2021/12/04 00:10:27;;;;;;;23.80;13.20;;;;;;;-2.02;81.19;99162.94;105276;1318;22606;-65
2021/12/04 00:12:55;;;;;;;20.40;12.90;;;;;;;-2.02;81.25;99164.27;106071;1322;138226;-65
2021/12/04 00:15:23;;;;;;;22.30;13.00;;;;;;;-2.03;81.24;99159.75;106180;1319;22483;-65
2021/12/04 00:17:51;;;;;;;20.00;13.00;;;;;;;-2.02;81.50;99160.20;106016;1320;140380;-65
2021/12/04 00:20:20;;;;;;;22.30;14.10;;;;;;;-2.02;81.63;99160.65;106152;1317;22275;-65
2021/12/04 00:22:49;;;;;;;24.90;15.00;;;;;;;-2.01;81.58;99161.60;106194;1319;23611;-65
2021/12/04 00:25:16;;;;;;;24.70;14.80;;;;;;;-2.00;81.48;99162.42;105983;1319;138219;-65
2021/12/04 00:27:49;;;;;;;26.10;15.40;;;;;;;-2.00;81.32;99161.08;106134;1318;22551;-65
2021/12/04 00:30:17;;;;;;;26.20;15.80;;;;;;;-2.01;81.32;99164.14;106035;1319;138284;-65
2021/12/04 00:32:55;;;;;;;29.60;16.90;;;;;;;-2.01;81.37;99162.58;106176;1319;23405;-65
2021/12/04 00:35:43;;;;;;;27.60;16.80;;;;;;;-2.02;81.49;99161.17;105926;1319;23193;-65
2021/12/04 00:51:53;;;;;;;18.40;11.40;;;;;;;-2.03;81.34;99166.29;106184;1319;22394;-65
2021/12/04 00:54:22;;;;;;;22.50;13.80;;;;;;;-2.04;81.36;99168.56;106073;1319;138779;-65
2021/12/04 00:56:50;;;;;;;26.40;14.10;;;;;;;-2.05;81.23;99169.73;106105;1318;23190;-65
2021/12/04 00:59:19;;;;;;;21.50;12.30;;;;;;;-2.06;81.32;99169.14;106182;1319;23309;-65
2021/12/04 01:01:47;;;;;;;22.20;13.00;;;;;;;-2.05;81.45;99163.61;106039;1319;138321;-65
2021/12/04 01:04:23;;;;;;;21.90;13.40;;;;;;;-2.04;81.40;99168.48;106163;1320;22507;-65
2021/12/04 01:06:51;;;;;;;22.80;13.60;;;;;;;-2.02;81.48;99171.69;106046;1319;138738;-65
2021/12/04 01:09:20;;;;;;;23.40;14.70;;;;;;;-2.02;81.53;99173.30;106042;1318;22406;-65
2021/12/04 01:11:49;;;;;;;21.80;13.50;;;;;;;-2.02;81.10;99177.29;106175;1319;22405;-65
2021/12/04 01:14:18;;;;;;;36.90;14.50;;;;;;;-2.04;81.01;99175.75;106035;1318;139575;-66
2021/12/04 01:16:47;;;;;;;25.00;13.60;;;;;;;-2.08;80.88;99180.04;106176;1319;23283;-60
2021/12/04 01:19:17;;;;;;;23.40;14.10;;;;;;;-2.10;80.88;99181.94;106055;1319;139335;-60
2021/12/04 01:21:47;;;;;;;21.90;13.60;;;;;;;-2.11;80.86;99189.39;106057;1318;22481;-60
2021/12/04 01:24:15;;;;;;;24.10;14.60;;;;;;;-2.14;80.76;99193.61;105631;1318;139297;-60
2021/12/04 01:26:43;;;;;;;19.60;12.60;;;;;;;-2.18;80.64;99196.62;106141;1320;23125;-60
2021/12/04 01:29:11;;;;;;;21.90;13.50;;;;;;;-2.23;80.78;99194.54;106125;1319;22442;-60
2021/12/04 01:31:39;;;;;;;19.90;12.90;;;;;;;-2.25;80.87;99193.72;105779;1319;138298;-60
2021/12/04 01:34:08;;;;;;;23.00;12.40;;;;;;;-2.28;80.85;99193.17;105942;1318;22475;-61
2021/12/04 01:36:36;;;;;;;22.10;13.20;;;;;;;-2.31;80.80;99193.60;106028;1318;138817;-60
2021/12/04 01:39:04;;;;;;;20.90;13.00;;;;;;;-2.33;80.80;99195.92;106151;1318;22505;-60
2021/12/04 01:41:33;;;;;;;26.00;13.30;;;;;;;-2.36;80.80;99200.05;106148;1318;22983;-60
2021/12/04 01:44:02;;;;;;;22.50;13.60;;;;;;;-2.38;81.01;99202.61;105988;1319;138434;-60
2021/12/04 01:46:31;;;;;;;27.80;14.50;;;;;;;-2.40;81.13;99201.02;106120;1318;22448;-60
2021/12/04 01:48:59;;;;;;;24.70;15.20;;;;;;;-2.42;81.21;99203.44;106071;1319;138769;-61
2021/12/04 01:51:27;;;;;;;26.20;15.00;;;;;;;-2.44;81.14;99203.48;106127;1318;22509;-60
2021/12/04 01:53:55;;;;;;;28.00;15.60;;;;;;;-2.45;81.36;99201.64;106021;1318;139252;-60
2021/12/04 01:56:24;;;;;;;27.60;15.10;;;;;;;-2.44;81.50;99206.00;104012;1319;22662;-64
2021/12/04 01:58:53;;;;;;;24.40;14.20;;;;;;;-2.45;81.41;99203.57;106083;1318;23639;-65
2021/12/04 02:01:21;;;;;;;21.90;13.30;;;;;;;-2.46;81.45;99207.50;106001;1318;138401;-65
2021/12/04 02:03:49;;;;;;;26.90;14.90;;;;;;;-2.45;81.47;99213.13;106154;1319;22497;-65
2021/12/04 02:06:18;;;;;;;29.70;14.90;;;;;;;-2.47;81.37;99211.52;106034;1318;139868;-65
2021/12/04 02:08:51;;;;;;;29.20;15.00;;;;;;;-2.47;81.64;99213.81;105533;1318;23454;-65
2021/12/04 02:11:19;;;;;;;35.30;16.80;;;;;;;-2.47;81.77;99213.24;106107;1318;23409;-65
2021/12/04 02:13:47;;;;;;;34.70;17.30;;;;;;;-2.44;81.72;99217.16;106048;1316;138191;-65
2021/12/04 02:16:16;;;;;;;29.10;18.50;;;;;;;-2.43;81.75;99219.22;105827;1319;23193;-65
2021/12/04 02:18:45;;;;;;;32.70;16.20;;;;;;;-2.42;81.74;99216.20;106014;1319;138468;-65
2021/12/04 02:21:13;;;;;;;26.40;15.40;;;;;;;-2.41;81.77;99219.67;105983;1318;22376;-65
2021/12/04 02:23:41;;;;;;;26.70;14.40;;;;;;;-2.40;81.66;99220.27;106180;1319;22426;-65
2021/12/04 02:26:09;;;;;;;21.20;13.00;;;;;;;-2.40;81.48;99224.17;105955;1319;139101;-66
2021/12/04 02:28:37;;;;;;;24.00;13.20;;;;;;;-2.40;81.69;99232.58;106134;1319;23119;-65
2021/12/04 02:31:06;;;;;;;24.50;12.70;;;;;;;-2.40;81.51;99232.23;106054;1319;138415;-66
2021/12/04 02:33:34;;;;;;;19.60;11.70;;;;;;;-2.40;81.46;99237.01;106108;1319;23155;-65
2021/12/04 02:36:02;;;;;;;21.40;12.10;;;;;;;-2.40;81.34;99237.20;105916;1319;140436;-65
2021/12/04 02:38:30;;;;;;;21.40;12.80;;;;;;;-2.41;81.39;99235.51;106102;1318;22514;-65
2021/12/04 02:41:02;;;;;;;22.70;14.20;;;;;;;-2.43;81.02;99232.65;106132;1318;22575;-65
2021/12/04 02:43:33;;;;;;;26.10;12.90;;;;;;;-2.44;81.18;99231.27;106075;1319;138892;-65
2021/12/04 02:46:02;;;;;;;25.70;14.70;;;;;;;-2.47;81.01;99227.48;106137;1318;22541;-65
2021/12/04 02:48:30;;;;;;;24.00;13.40;;;;;;;-2.49;81.20;99230.20;106017;1318;139261;-65
2021/12/04 02:50:58;;;;;;;28.90;12.60;;;;;;;-2.50;80.92;99230.91;106157;1319;22504;-65
2021/12/04 02:53:26;;;;;;;27.10;12.30;;;;;;;-2.55;80.94;99228.98;106058;1316;190089;-65
2021/12/04 02:55:54;;;;;;;28.50;13.50;;;;;;;-2.59;80.80;99230.52;106075;1319;138944;-65
2021/12/04 02:58:22;;;;;;;23.20;13.00;;;;;;;-2.63;80.98;99227.23;106104;1318;22378;-65
2021/12/04 03:00:51;;;;;;;21.30;13.40;;;;;;;-2.66;81.03;99222.42;106061;1319;138315;-65
2021/12/04 03:03:20;;;;;;;22.00;12.40;;;;;;;-2.69;80.88;99219.24;106194;1319;22455;-65
2021/12/04 03:05:50;;;;;;;21.50;11.70;;;;;;;-2.71;81.11;99223.36;106137;1318;22533;-65
2021/12/04 03:08:21;;;;;;;23.90;12.70;;;;;;;-2.74;80.96;99225.52;106000;1318;138639;-65
2021/12/04 03:10:51;;;;;;;24.50;11.50;;;;;;;-2.76;80.96;99232.52;106189;1319;23166;-65
2021/12/04 03:13:22;;;;;;;22.20;12.40;;;;;;;-2.77;81.07;99237.69;106020;1317;138574;-65
2021/12/04 03:15:58;;;;;;;20.30;11.20;;;;;;;-2.79;81.07;99242.79;105959;1318;22425;-65
2021/12/04 03:18:27;;;;;;;24.60;12.50;;;;;;;-2.80;81.10;99247.61;106041;1316;138537;-65
2021/12/04 03:20:58;;;;;;;19.80;11.90;;;;;;;-2.83;81.11;99244.52;105042;1325;22426;-65
2021/12/04 03:23:31;;;;;;;18.30;11.50;;;;;;;-2.85;81.12;99243.83;106139;1319;22468;-65
2021/12/04 03:26:01;;;;;;;17.90;11.20;;;;;;;-2.89;81.02;99248.73;106075;1319;139584;-59
2021/12/04 03:28:31;;;;;;;19.40;11.30;;;;;;;-2.93;80.87;99250.84;106154;1317;23401;-59
2021/12/04 03:31:23;;;;;;;21.80;12.10;;;;;;;-2.95;80.94;99250.55;104989;1316;138846;-60
2021/12/04 03:42:10;;;;;;;20.30;10.40;;;;;;;-3.04;80.99;99248.10;106013;1319;138709;-60
2021/12/04 03:44:40;;;;;;;19.10;11.70;;;;;;;-3.06;81.05;99248.18;106093;1322;22484;-60
2021/12/04 03:47:09;;;;;;;22.10;12.00;;;;;;;-3.07;81.17;99253.21;106150;1319;22537;-60
2021/12/04 03:49:38;;;;;;;20.60;11.40;;;;;;;-3.08;81.20;99257.48;105998;1318;139318;-60
2021/12/04 03:52:07;;;;;;;16.90;10.90;;;;;;;-3.10;81.01;99256.05;106107;1318;22464;-60
2021/12/04 03:54:35;;;;;;;17.50;10.50;;;;;;;-3.12;80.98;99255.40;105999;1318;139976;-60
2021/12/04 03:57:04;;;;;;;18.80;10.60;;;;;;;-3.17;80.85;99258.67;106183;1319;22550;-65
2021/12/04 03:59:34;;;;;;;22.30;11.40;;;;;;;-3.23;80.95;99262.84;106146;1318;22373;-65
2021/12/04 04:02:04;;;;;;;16.60;10.80;;;;;;;-3.25;80.90;99258.61;106043;1318;139853;-65
2021/12/04 04:04:32;;;;;;;22.20;11.60;;;;;;;-3.26;81.06;99262.02;106121;1318;22477;-65
2021/12/04 04:07:00;;;;;;;19.10;11.40;;;;;;;-3.27;81.05;99260.86;106044;1319;138317;-65
2021/12/04 04:09:28;;;;;;;20.60;11.60;;;;;;;-3.27;81.12;99264.75;106005;1318;22381;-64
2021/12/04 04:11:56;;;;;;;20.40;11.10;;;;;;;-3.29;81.24;99268.13;106095;1319;22469;-64
2021/12/04 04:14:25;;;;;;;17.70;10.30;;;;;;;-3.30;81.21;99261.57;105988;1319;139980;-64
2021/12/04 04:16:54;;;;;;;20.40;11.40;;;;;;;-3.32;81.17;99265.10;106086;1318;23141;-65
2021/12/04 04:19:23;;;;;;;21.10;12.00;;;;;;;-3.33;81.18;99272.07;105963;1318;141441;-65
2021/12/04 04:21:58;;;;;;;19.30;11.80;;;;;;;-3.35;81.26;99273.04;105121;1319;23368;-66
2021/12/04 04:24:27;;;;;;;20.60;11.40;;;;;;;-3.36;81.12;99271.71;106023;1318;138766;-66
2021/12/04 04:26:55;;;;;;;21.40;11.60;;;;;;;-3.40;81.16;99270.33;106110;1319;22482;-66
2021/12/04 04:29:25;;;;;;;19.30;11.50;;;;;;;-3.43;81.06;99272.83;106117;1318;25159;-66
2021/12/04 04:31:54;;;;;;;25.00;12.70;;;;;;;-3.45;81.08;99270.94;106061;1319;139222;-66
2021/12/04 04:34:36;;;;;;;27.60;11.60;;;;;;;-3.47;81.12;99269.90;106099;1318;23094;-66
2021/12/04 05:12:58;;;;;;;29.50;15.50;;;;;;;-3.92;80.72;99284.40;105729;1316;138513;-64
2021/12/04 05:21:05;;;;;;;30.20;15.10;;;;;;;-4.15;81.04;99298.92;106019;1318;138278;-65
2021/12/04 05:23:39;;;;;;;68.20;27.30;;;;;;;-4.19;81.30;99298.19;105613;1318;23673;-65
2021/12/04 05:26:08;;;;;;;124.30;41.30;;;;;;;-4.19;81.59;99302.90;106050;1316;138688;-65
2021/12/04 05:28:37;;;;;;;170.80;52.70;;;;;;;-4.18;81.82;99301.54;106153;1318;22471;-65
2021/12/04 05:31:05;;;;;;;196.90;54.30;;;;;;;-4.15;81.98;99309.02;106047;1315;140381;-65
2021/12/04 05:33:33;;;;;;;124.40;38.50;;;;;;;-4.12;82.02;99311.66;106169;1317;22422;-65
2021/12/04 05:36:02;;;;;;;94.20;32.40;;;;;;;-4.09;82.16;99311.16;104732;1318;22578;-64
2021/12/04 05:38:30;;;;;;;51.60;21.20;;;;;;;-4.06;82.05;99314.22;106022;1318;139405;-66
2021/12/04 05:40:58;;;;;;;42.70;18.00;;;;;;;-4.04;81.95;99315.97;106180;1319;23250;-66
2021/12/04 05:43:26;;;;;;;36.30;16.50;;;;;;;-4.02;82.13;99315.22;106063;1317;138396;-65
2021/12/04 05:46:01;;;;;;;31.30;15.90;;;;;;;-4.01;81.96;99321.84;106143;1318;22417;-65
2021/12/04 05:48:40;;;;;;;30.50;17.10;;;;;;;-3.99;81.99;99321.94;106160;1316;22482;-66
2021/12/04 05:53:59;;;;;;;42.10;18.20;;;;;;;-3.97;81.90;99321.67;106184;1316;22444;-66
2021/12/04 05:56:28;;;;;;;35.50;18.60;;;;;;;-3.97;82.07;99321.16;106015;1318;139767;-66
2021/12/04 05:58:57;;;;;;;37.90;18.70;;;;;;;-3.96;82.08;99322.34;106151;1318;22388;-65
2021/12/04 06:01:25;;;;;;;42.80;20.20;;;;;;;-3.95;81.95;99326.13;106105;1315;140171;-65
2021/12/04 06:03:54;;;;;;;55.20;26.30;;;;;;;-3.94;81.96;99330.61;106209;1315;22396;-65
2021/12/04 06:06:22;;;;;;;71.30;33.80;;;;;;;-3.94;82.00;99330.77;106216;1315;22402;-65
2021/12/04 06:08:50;;;;;;;171.40;69.00;;;;;;;-3.93;82.16;99335.44;106088;1316;139555;-65
2021/12/04 06:11:19;;;;;;;180.20;75.30;;;;;;;-3.90;82.07;99340.52;106164;1319;22522;-65
2021/12/04 06:13:47;;;;;;;162.90;70.00;;;;;;;-3.89;82.08;99345.81;105980;1316;140141;-65
2021/12/04 06:16:16;;;;;;;139.30;64.10;;;;;;;-3.87;82.07;99353.80;106215;1315;22542;-66
2021/12/04 06:18:51;;;;;;;102.00;46.70;;;;;;;-3.86;82.23;99356.56;106231;1316;22399;-67
2021/12/04 06:24:06;;;;;;;92.60;39.60;;;;;;;-3.84;82.26;99351.17;106222;1315;22467;-65
2021/12/04 06:26:35;;;;;;;103.00;44.30;;;;;;;-3.84;82.36;99349.21;106070;1315;139241;-66
2021/12/04 06:29:04;;;;;;;84.90;40.20;;;;;;;-3.84;82.32;99348.02;106232;1316;22395;-66
2021/12/04 06:31:32;;;;;;;64.00;31.40;;;;;;;-3.84;82.38;99346.68;106095;1315;139287;-66
2021/12/04 06:34:00;;;;;;;53.20;26.10;;;;;;;-3.80;82.70;99347.91;106084;1315;22483;-66
2021/12/04 06:36:29;;;;;;;44.10;20.40;;;;;;;-3.74;82.69;99348.05;106225;1316;22902;-66
2021/12/04 06:38:57;;;;;;;32.80;18.40;;;;;;;-3.70;82.64;99346.71;106053;1318;139386;-66
2021/12/04 06:41:25;;;;;;;32.50;17.30;;;;;;;-3.65;82.78;99346.90;106203;1316;22590;-66
2021/12/04 06:43:55;;;;;;;39.40;18.60;;;;;;;-3.59;82.73;99343.90;106130;1316;140065;-66
2021/12/04 06:46:24;;;;;;;37.90;20.80;;;;;;;-3.55;82.68;99340.63;106213;1315;22474;-66
2021/12/04 06:49:09;;;;;;;52.90;25.50;;;;;;;-3.50;82.75;99344.32;106229;1315;22462;-66
2021/12/04 06:51:41;;;;;;;58.80;27.60;;;;;;;-3.44;82.90;99347.37;106037;1316;139111;-66
2021/12/04 06:57:08;;;;;;;60.60;30.70;;;;;;;-3.31;82.97;99349.26;99044;1359;545307;-64
2021/12/04 06:59:39;;;;;;;61.00;28.40;;;;;;;-3.26;82.95;99350.30;100892;1331;24371;-65
2021/12/04 07:02:07;;;;;;;61.10;27.80;;;;;;;-3.20;83.06;99352.41;104754;1328;138023;-66
2021/12/04 07:04:37;;;;;;;52.70;25.50;;;;;;;-3.14;83.02;99349.30;104930;1328;23525;-66
2021/12/04 07:07:06;;;;;;;40.70;20.60;;;;;;;-3.09;83.07;99352.65;104960;1328;23689;-66
2021/12/04 07:09:35;;;;;;;35.20;18.30;;;;;;;-3.05;83.14;99350.54;104755;1328;186369;-66
2021/12/04 07:12:04;;;;;;;38.60;20.50;;;;;;;-2.98;83.19;99350.24;105234;1328;22541;-66
2021/12/04 07:14:32;;;;;;;44.40;23.30;;;;;;;-2.92;83.17;99354.15;105089;1328;139107;-66
2021/12/04 07:17:03;;;;;;;46.60;23.80;;;;;;;-2.85;83.27;99353.69;102001;1325;25338;-65
2021/12/04 07:19:31;;;;;;;50.70;25.40;;;;;;;-2.78;83.27;99355.48;100850;1328;138457;-65
2021/12/04 07:21:59;;;;;;;42.50;20.80;;;;;;;-2.71;83.14;99353.34;101016;1328;22868;-64
2021/12/04 07:24:29;;;;;;;40.50;19.60;;;;;;;-2.65;83.27;99349.65;104559;1328;22428;-66
2021/12/04 07:26:57;;;;;;;39.80;19.10;;;;;;;-2.57;83.16;99355.47;104688;1329;138249;-66
2021/12/04 07:29:26;;;;;;;45.40;20.20;;;;;;;-2.52;83.06;99354.45;105174;1328;22577;-66
2021/12/04 07:31:55;;;;;;;44.10;21.70;;;;;;;-2.45;83.01;99357.75;105003;1328;138804;-66
2021/12/04 07:34:23;;;;;;;34.70;18.10;;;;;;;-2.38;83.16;99360.00;104359;1333;22544;-66
2021/12/04 07:36:51;;;;;;;32.70;17.90;;;;;;;-2.31;82.91;99359.74;105131;1328;22577;-66
2021/12/04 07:39:19;;;;;;;34.70;17.70;;;;;;;-2.26;82.85;99358.89;105131;1328;138172;-66
2021/12/04 07:41:47;;;;;;;31.40;17.30;;;;;;;-2.20;82.88;99362.09;104674;1328;22393;-66
2021/12/04 07:44:16;;;;;;;32.50;18.60;;;;;;;-2.14;82.68;99368.30;105057;1325;139578;-66
2021/12/04 07:46:44;;;;;;;34.30;18.70;;;;;;;-2.07;82.62;99367.88;102495;1328;25557;-65
2021/12/04 07:49:12;;;;;;;31.50;17.20;;;;;;;-2.00;82.51;99367.97;105049;1328;22486;-66
2021/12/04 07:51:40;;;;;;;28.40;16.80;;;;;;;-1.94;82.50;99366.88;104948;1327;137824;-66
2021/12/04 07:54:09;;;;;;;30.00;16.50;;;;;;;-1.88;82.46;99368.77;105099;1329;22464;-66
2021/12/04 07:56:37;;;;;;;31.30;18.20;;;;;;;-1.81;82.35;99373.86;105003;1326;137844;-66
2021/12/04 07:59:05;;;;;;;29.00;18.20;;;;;;;-1.76;82.15;99377.16;105086;1329;22405;-66
2021/12/04 08:01:34;;;;;;;34.40;18.50;;;;;;;-1.71;82.01;99380.53;104987;1329;138016;-66
2021/12/04 08:04:03;;;;;;;33.90;19.50;;;;;;;-1.70;81.88;99378.74;105212;1325;22826;-66
2021/12/04 08:06:35;;;;;;;31.60;16.80;;;;;;;-1.65;81.87;99376.77;105162;1328;22503;-66
2021/12/04 08:09:04;;;;;;;33.00;17.50;;;;;;;-1.60;81.66;99376.29;105065;1328;138074;-66
2021/12/04 08:11:32;;;;;;;30.20;16.30;;;;;;;-1.55;81.54;99376.91;105075;1328;23236;-66
2021/12/04 08:14:00;;;;;;;39.50;17.70;;;;;;;-1.50;81.43;99375.57;105032;1328;137951;-66
2021/12/04 08:16:32;;;;;;;34.10;16.80;;;;;;;-1.46;81.38;99371.02;102882;1325;22810;-65
2021/12/04 08:19:00;;;;;;;37.80;18.30;;;;;;;-1.40;81.11;99365.20;100718;1330;22843;-65
2021/12/04 08:21:29;;;;;;;30.60;16.60;;;;;;;-1.34;81.06;99362.34;100877;1328;137945;-65
2021/12/04 08:23:57;;;;;;;31.60;16.60;;;;;;;-1.29;81.03;99360.26;100968;1329;22610;-65
2021/12/04 08:26:25;;;;;;;30.50;17.30;;;;;;;-1.25;80.80;99362.23;100898;1328;138004;-64
2021/12/04 08:28:53;;;;;;;30.80;16.30;;;;;;;-1.24;80.48;99364.60;105164;1328;23571;-65
2021/12/04 08:31:21;;;;;;;28.30;16.40;;;;;;;-1.20;80.41;99364.86;105001;1325;138000;-66
2021/12/04 08:33:49;;;;;;;34.70;19.10;;;;;;;-1.16;80.40;99364.17;105148;1325;22473;-66
2021/12/04 08:36:17;;;;;;;29.20;17.80;;;;;;;-1.13;80.09;99363.79;105210;1325;22590;-66
2021/12/04 08:38:48;;;;;;;36.20;19.50;;;;;;;-1.10;80.05;99363.91;105120;1325;137947;-67
2021/12/04 08:41:17;;;;;;;28.20;17.20;;;;;;;-1.06;80.09;99358.66;105173;1326;22814;-66
2021/12/04 08:43:45;;;;;;;33.20;18.50;;;;;;;-1.03;79.95;99351.45;105099;1325;138213;-65
2021/12/04 08:46:14;;;;;;;36.20;20.00;;;;;;;-1.02;79.71;99350.02;103248;1325;22585;-65
2021/12/04 08:48:42;;;;;;;33.10;18.20;;;;;;;-1.00;79.98;99345.34;105250;1325;24676;-67
2021/12/04 08:51:10;;;;;;;26.40;16.10;;;;;;;-0.97;79.60;99345.17;104462;1326;137768;-66
2021/12/04 08:53:38;;;;;;;30.30;17.10;;;;;;;-0.95;79.57;99341.66;105183;1325;22447;-66
2021/12/04 08:56:06;;;;;;;29.50;17.80;;;;;;;-0.93;79.50;99339.80;105173;1325;139525;-66
2021/12/04 08:58:39;;;;;;;32.30;18.90;;;;;;;-0.91;79.53;99339.41;105210;1325;23316;-66
2021/12/04 09:01:13;;;;;;;30.60;18.70;;;;;;;-0.87;79.53;99332.59;105176;1328;22479;-65
2021/12/04 09:03:46;;;;;;;36.10;19.20;;;;;;;-0.82;79.48;99325.05;105953;1319;139950;-66
2021/12/04 09:06:14;;;;;;;59.50;29.00;;;;;;;-0.77;79.58;99324.92;106126;1318;22462;-66
2021/12/04 09:08:42;;;;;;;36.30;19.90;;;;;;;-0.72;79.82;99321.42;105982;1319;137928;-66
2021/12/04 09:11:13;;;;;;;35.90;18.70;;;;;;;-0.66;79.46;99322.55;106061;1318;22273;-66
2021/12/04 09:13:41;;;;;;;31.50;17.90;;;;;;;-0.61;79.28;99323.39;105946;1318;138119;-66
2021/12/04 09:16:10;;;;;;;30.70;17.20;;;;;;;-0.58;79.19;99324.66;106097;1321;22441;-66
2021/12/04 09:18:38;;;;;;;35.40;17.80;;;;;;;-0.54;79.30;99317.60;105074;1319;23091;-66
2021/12/04 09:21:14;;;;;;;30.20;18.30;;;;;;;-0.49;79.23;99321.21;105978;1318;137807;-65
2021/12/04 09:23:49;;;;;;;41.10;20.80;;;;;;;-0.45;78.83;99320.80;106056;1318;22474;-66
2021/12/04 09:26:37;;;;;;;35.30;19.20;;;;;;;-0.43;78.97;99311.90;105979;1318;138284;-65
2021/12/04 09:59:56;;;;;;;37.80;17.90;;;;;;;-0.03;77.63;99280.73;106180;1318;23411;-64
2021/12/04 10:02:34;;;;;;;36.10;19.10;;;;;;;0.02;77.68;99281.05;105266;1319;139508;-64
2021/12/04 10:22:01;;;;;;;32.10;15.70;;;;;;;0.27;77.48;99275.09;106020;1318;137872;-65
2021/12/04 10:24:43;;;;;;;21.20;13.20;;;;;;;0.31;77.44;99270.48;106206;1319;22530;-65
2021/12/04 10:33:18;;;;;;;28.30;16.50;;;;;;;0.45;76.80;99266.17;106059;1318;139152;-65
2021/12/04 10:35:48;;;;;;;26.70;15.80;;;;;;;0.47;77.07;99264.00;106088;1319;22388;-65
2021/12/04 10:38:25;;;;;;;28.00;17.60;;;;;;;0.47;76.90;99256.58;106111;1319;138171;-65
2021/12/04 10:40:54;;;;;;;33.00;17.00;;;;;;;0.49;76.97;99254.54;106123;1319;22490;-65
2021/12/04 10:43:25;;;;;;;29.80;16.70;;;;;;;0.54;76.90;99256.83;105845;1323;23432;-65
2021/12/04 10:45:55;;;;;;;32.70;18.00;;;;;;;0.59;76.71;99250.57;106061;1318;137784;-65
2021/12/04 10:48:27;;;;;;;37.10;19.10;;;;;;;0.65;76.81;99252.16;106175;1318;23543;-65
2021/12/04 10:53:51;;;;;;;28.20;16.50;;;;;;;0.71;76.67;99249.48;106153;1318;23468;-66
2021/12/04 11:01:56;;;;;;;39.60;18.50;;;;;;;0.82;76.57;99249.91;106190;1318;22532;-65
2021/12/04 11:37:05;;;;;;;32.70;17.90;;;;;;;1.13;75.30;99209.21;105700;1326;22424;-63
2021/12/04 11:43:08;;;;;;;26.70;15.30;;;;;;;1.19;74.77;99207.59;105051;1327;22539;-65
2021/12/04 11:46:00;;;;;;;30.00;15.30;;;;;;;1.21;74.77;99209.54;104899;1328;139299;-65
2021/12/04 11:48:31;;;;;;;25.50;15.00;;;;;;;1.25;74.66;99201.78;105051;1327;22452;-65
2021/12/04 11:50:59;;;;;;;26.40;13.70;;;;;;;1.27;74.53;99199.19;104661;1331;138019;-65
2021/12/04 11:53:30;;;;;;;65.10;25.90;;;;;;;1.29;74.70;99200.52;105501;1325;22618;-65
2021/12/04 11:55:58;;;;;;;42.80;20.80;;;;;;;1.31;74.36;99201.23;105578;1325;22457;-64
2021/12/04 11:58:33;;;;;;;30.10;15.60;;;;;;;1.32;74.39;99198.92;105482;1325;138055;-65
2021/12/04 12:01:05;;;;;;;19.60;12.00;;;;;;;1.34;74.17;99200.29;105362;1324;22533;-65
2021/12/04 12:03:35;;;;;;;24.90;13.30;;;;;;;1.34;74.11;99194.50;105436;1324;138173;-65
2021/12/04 12:06:05;;;;;;;17.90;12.60;;;;;;;1.36;73.97;99197.85;105451;1324;23810;-65
2021/12/04 12:08:45;;;;;;;21.30;10.90;;;;;;;1.37;73.89;99196.05;105527;1324;138377;-64
2021/12/04 12:11:19;;;;;;;19.90;10.50;;;;;;;1.39;73.69;99191.30;105590;1321;23562;-63
2021/12/04 12:13:56;;;;;;;19.70;11.30;;;;;;;1.41;73.59;99189.03;105556;1325;22440;-64
2021/12/04 12:16:27;;;;;;;19.30;11.60;;;;;;;1.39;73.37;99185.27;105417;1321;138422;-64
2021/12/04 12:18:58;;;;;;;21.80;11.00;;;;;;;1.38;73.11;99188.16;105997;1315;22469;-64
2021/12/04 12:21:32;;;;;;;22.00;12.40;;;;;;;1.39;73.19;99190.18;106170;1315;139124;-64
2021/12/04 12:24:13;;;;;;;23.50;13.60;;;;;;;1.40;73.00;99183.38;106301;1315;22496;-65
2021/12/04 12:27:25;;;;;;;22.80;14.10;;;;;;;1.41;72.80;99181.97;106223;1315;138453;-64
2021/12/04 12:32:53;;;;;;;;;;;;;;;1.30;72.66;99173.70;105887;1315;139003;-64
2021/12/04 12:38:40;;;;;;;18.50;12.20;;;;;;;1.19;73.06;99175.52;105972;1319;139069;-64
2021/12/04 12:41:30;;;;;;;16.50;10.80;;;;;;;1.19;73.29;99175.64;106250;1318;22503;-64
2021/12/04 12:44:00;;;;;;;19.20;11.50;;;;;;;1.22;72.81;99176.39;106251;1315;22413;-64
2021/12/04 12:46:40;;;;;;;25.80;13.00;;;;;;;1.23;72.92;99173.75;106167;1316;138792;-64
2021/12/04 12:49:24;;;;;;;33.10;14.60;;;;;;;1.24;72.71;99174.16;106246;1315;22483;-64
2021/12/04 12:52:06;;;;;;;27.10;14.80;;;;;;;1.24;72.43;99175.27;106136;1315;138017;-66
2021/12/04 12:54:52;;;;;;;38.20;18.60;;;;;;;1.23;72.47;99172.63;106207;1315;22691;-66
2021/12/04 12:57:31;;;;;;;27.80;17.40;;;;;;;1.21;72.54;99176.14;106170;1315;138875;-66
2021/12/04 13:14:13;;;;;;;29.40;15.90;;;;;;;0.97;72.72;99163.91;106162;1315;138832;-66
2021/12/04 13:16:43;;;;;;;33.30;16.40;;;;;;;0.94;72.87;99163.00;106188;1316;23251;-67
2021/12/04 13:19:13;;;;;;;25.20;14.30;;;;;;;0.89;72.52;99167.06;106223;1318;22465;-66
2021/12/04 13:21:43;;;;;;;24.30;14.70;;;;;;;0.85;72.86;99167.37;106094;1315;139296;-66
2021/12/04 13:24:12;;;;;;;33.10;18.60;;;;;;;0.80;72.85;99166.45;106178;1315;23218;-66
2021/12/04 13:26:47;;;;;;;28.20;16.40;;;;;;;0.78;72.90;99167.27;106182;1315;138534;-66
2021/12/04 13:29:16;;;;;;;45.60;24.40;;;;;;;0.76;72.90;99163.67;106272;1315;23026;-66
2021/12/04 13:31:45;;;;;;;42.90;22.90;;;;;;;0.70;72.67;99160.99;106239;1316;22453;-66
2021/12/04 13:34:14;;;;;;;44.70;25.00;;;;;;;0.65;72.86;99159.86;106204;1316;138241;-66
2021/12/04 13:36:45;;;;;;;55.80;29.20;;;;;;;0.62;72.74;99157.25;103628;1316;23400;-60
2021/12/04 13:39:14;;;;;;;60.90;32.50;;;;;;;0.58;73.14;99156.83;106163;1315;137921;-61
2021/12/04 13:41:43;;;;;;;71.40;37.80;;;;;;;0.54;73.01;99155.97;106292;1316;22431;-60
2021/12/04 13:44:13;;;;;;;65.00;34.80;;;;;;;0.50;72.90;99154.34;105499;1316;138603;-61
2021/12/04 13:46:46;;;;;;;59.10;35.00;;;;;;;0.45;72.94;99151.60;106192;1315;22310;-61
2021/12/04 13:49:19;;;;;;;67.20;39.60;;;;;;;0.38;73.21;99153.65;106253;1316;23183;-61
2021/12/04 13:51:55;;;;;;;54.80;32.50;;;;;;;0.30;73.31;99152.67;105179;1315;138138;-61
2021/12/04 13:54:24;;;;;;;55.70;31.30;;;;;;;0.24;73.46;99151.95;106162;1316;22474;-60
2021/12/04 13:56:53;;;;;;;56.00;34.30;;;;;;;0.12;73.18;99151.49;106113;1315;138021;-61
2021/12/04 13:59:25;;;;;;;57.50;34.40;;;;;;;0.00;73.31;99155.20;106262;1315;22446;-60
2021/12/04 14:01:53;;;;;;;62.00;35.60;;;;;;;-0.11;73.36;99153.27;106169;1316;22340;-61
2021/12/04 14:04:21;;;;;;;62.20;34.00;;;;;;;-0.20;73.53;99153.60;106137;1315;139412;-61
2021/12/04 14:07:01;;;;;;;54.90;31.30;;;;;;;-0.28;73.54;99153.86;105727;1316;23686;-60
2021/12/04 14:09:31;;;;;;;50.30;27.90;;;;;;;-0.34;73.97;99157.16;105708;1315;139034;-60
2021/12/04 14:11:59;;;;;;;50.40;26.50;;;;;;;-0.41;74.06;99159.61;106191;1315;23146;-60
2021/12/04 14:14:29;;;;;;;41.20;24.40;;;;;;;-0.44;74.44;99158.78;106145;1315;138570;-60
2021/12/04 14:17:05;;;;;;;47.80;26.00;;;;;;;-0.49;74.48;99156.44;106275;1315;22456;-67
2021/12/04 14:19:33;;;;;;;44.40;26.20;;;;;;;-0.57;74.57;99157.66;106219;1315;22412;-65
2021/12/04 14:22:05;;;;;;;49.90;26.90;;;;;;;-0.62;74.46;99159.20;106146;1315;138360;-65
2021/12/04 14:24:42;;;;;;;52.10;29.00;;;;;;;-0.67;74.79;99162.52;106242;1316;22440;-64
2021/12/04 14:27:12;;;;;;;57.80;30.70;;;;;;;-0.71;75.33;99161.01;106140;1321;138195;-65
2021/12/04 14:29:42;;;;;;;54.30;28.70;;;;;;;-0.76;75.10;99164.83;106245;1315;22593;-64
2021/12/04 14:32:12;;;;;;;59.50;29.50;;;;;;;-0.81;75.15;99164.44;106117;1316;138870;-64